createdAt,value
2017-11-09T00:01:31.156Z,26.80
2017-11-09T00:04:05.001Z,26.80
2017-11-09T00:06:33.456Z,26.80
2017-11-09T00:09:01.561Z,26.60
2017-11-09T00:11:30.076Z,26.70
2017-11-09T00:13:58.884Z,26.60
2017-11-09T00:16:26.976Z,26.50
2017-11-09T00:18:55.132Z,26.50
2017-11-09T00:21:24.073Z,26.40
2017-11-09T00:23:53.122Z,26.40
2017-11-09T00:26:21.320Z,26.30
2017-11-09T00:28:50.129Z,26.30
2017-11-09T00:31:18.305Z,26.30
2017-11-09T00:33:46.402Z,26.20
2017-11-09T00:36:15.445Z,26.10
2017-11-09T00:38:43.607Z,26.10
2017-11-09T00:41:12.329Z,26.10
2017-11-09T00:43:41.136Z,26.10
2017-11-09T00:46:10.045Z,26.00
2017-11-09T00:48:38.245Z,26.00
2017-11-09T00:51:06.535Z,26.00
2017-11-09T00:53:35.141Z,25.90
2017-11-09T00:56:03.677Z,25.90
2017-11-09T00:58:32.325Z,25.90
2017-11-09T01:01:00.970Z,25.90
2017-11-09T01:03:29.064Z,25.80
2017-11-09T01:05:57.281Z,25.80
2017-11-09T01:08:26.708Z,25.70
2017-11-09T01:10:55.617Z,25.60
2017-11-09T01:13:23.844Z,25.70
2017-11-09T01:15:52.624Z,25.80
2017-11-09T01:18:20.730Z,25.70
2017-11-09T01:20:49.689Z,25.70
2017-11-09T01:23:17.779Z,25.70
2017-11-09T01:25:47.315Z,25.70
2017-11-09T01:28:16.170Z,25.70
2017-11-09T01:30:44.905Z,25.60
2017-11-09T01:33:13.045Z,25.40
2017-11-09T01:35:42.105Z,25.50
2017-11-09T01:38:10.211Z,25.50
2017-11-09T01:40:39.657Z,25.40
2017-11-09T01:43:08.673Z,25.40
2017-11-09T01:45:37.498Z,25.40
2017-11-09T01:48:06.421Z,25.30
2017-11-09T01:50:34.669Z,25.30
2017-11-09T01:53:03.622Z,25.30
2017-11-09T01:55:31.789Z,25.30
2017-11-09T01:58:00.485Z,25.20
2017-11-09T02:00:29.138Z,25.20
2017-11-09T02:02:57.325Z,25.20
2017-11-09T02:05:25.648Z,25.30
2017-11-09T02:07:53.857Z,25.10
2017-11-09T02:10:22.727Z,25.20
2017-11-09T02:12:51.783Z,25.20
2017-11-09T02:15:19.950Z,25.10
2017-11-09T02:17:48.142Z,25.20
2017-11-09T02:20:16.497Z,25.20
2017-11-09T02:22:44.688Z,25.10
2017-11-09T02:25:13.606Z,25.20
2017-11-09T02:27:42.704Z,25.20
2017-11-09T02:30:11.566Z,25.10
2017-11-09T02:32:40.254Z,25.20
2017-11-09T02:35:08.629Z,25.10
2017-11-09T02:37:36.853Z,25.10
2017-11-09T02:40:06.298Z,25.10
2017-11-09T02:42:34.577Z,25.10
2017-11-09T02:45:02.779Z,25.10
2017-11-09T02:47:31.606Z,25.10
2017-11-09T02:50:01.150Z,25.20
2017-11-09T02:52:30.450Z,25.20
2017-11-09T02:54:58.628Z,25.30
2017-11-09T02:57:27.209Z,25.40
2017-11-09T02:59:55.594Z,25.40
2017-11-09T03:02:23.809Z,25.40
2017-11-09T03:04:52.037Z,25.40
2017-11-09T03:07:20.232Z,25.50
2017-11-09T03:09:48.342Z,25.50
2017-11-09T03:12:17.302Z,25.60
2017-11-09T03:14:46.015Z,25.70
2017-11-09T03:17:14.613Z,25.70
2017-11-09T03:19:42.829Z,25.80
2017-11-09T03:22:11.012Z,25.80
2017-11-09T03:24:39.185Z,25.80
2017-11-09T03:27:08.219Z,26.00
2017-11-09T03:29:36.524Z,26.80
2017-11-09T03:32:05.163Z,28.10
2017-11-09T03:34:33.993Z,28.90
2017-11-09T03:37:02.088Z,29.00
2017-11-09T03:39:31.013Z,27.80
2017-11-09T03:42:00.006Z,27.70
2017-11-09T03:44:28.801Z,27.40
2017-11-09T03:46:57.726Z,27.40
2017-11-09T03:49:26.287Z,27.30
2017-11-09T03:51:54.467Z,27.20
2017-11-09T03:54:22.562Z,27.20
2017-11-09T03:56:52.225Z,27.20
2017-11-09T03:59:20.324Z,27.20
2017-11-09T04:01:49.054Z,27.20
2017-11-09T04:04:18.556Z,27.40
2017-11-09T04:06:47.425Z,27.30
2017-11-09T04:09:15.604Z,27.30
2017-11-09T04:11:43.846Z,27.50
2017-11-09T04:14:11.950Z,27.70
2017-11-09T04:16:41.117Z,27.80
2017-11-09T04:19:09.363Z,27.80
2017-11-09T04:21:38.202Z,28.10
2017-11-09T04:24:06.441Z,28.10
2017-11-09T04:26:35.431Z,28.70
2017-11-09T04:29:04.369Z,28.80
2017-11-09T04:31:33.293Z,28.70
2017-11-09T04:34:02.325Z,28.60
2017-11-09T04:36:31.285Z,28.50
2017-11-09T04:38:59.389Z,28.60
2017-11-09T04:41:27.792Z,28.70
2017-11-09T04:43:56.634Z,28.80
2017-11-09T04:46:26.067Z,28.70
2017-11-09T04:48:55.062Z,28.70
2017-11-09T04:51:23.853Z,28.80
2017-11-09T04:53:51.956Z,29.10
2017-11-09T04:56:20.262Z,29.20
2017-11-09T04:58:48.376Z,29.10
2017-11-09T05:01:17.082Z,29.30
2017-11-09T05:03:45.971Z,29.40
2017-11-09T05:06:14.852Z,29.60
2017-11-09T05:08:43.037Z,29.60
2017-11-09T05:11:11.258Z,29.80
2017-11-09T05:13:40.026Z,29.90
2017-11-09T05:16:08.599Z,30.00
2017-11-09T05:18:37.467Z,30.10
2017-11-09T05:21:06.208Z,30.20
2017-11-09T05:23:34.297Z,30.30
2017-11-09T05:26:02.605Z,30.50
2017-11-09T05:28:30.817Z,30.50
2017-11-09T05:30:59.268Z,30.90
2017-11-09T05:33:27.650Z,31.70
2017-11-09T05:35:55.834Z,32.70
2017-11-09T05:38:23.946Z,33.20
2017-11-09T05:40:52.349Z,34.20
2017-11-09T05:43:21.272Z,34.30
2017-11-09T05:45:50.073Z,34.30
2017-11-09T05:48:19.113Z,33.70
2017-11-09T06:03:53.399Z,33.70
2017-11-09T06:06:22.469Z,33.30
2017-11-09T06:08:51.151Z,33.20
2017-11-09T06:11:19.446Z,33.10
2017-11-09T06:13:47.780Z,33.30
2017-11-09T06:16:17.861Z,33.10
2017-11-09T06:18:46.925Z,33.00
2017-11-09T06:21:15.030Z,33.30
2017-11-09T06:23:43.214Z,33.30
2017-11-09T06:26:11.529Z,33.30
2017-11-09T06:28:45.739Z,33.40
2017-11-09T06:34:05.977Z,33.50
2017-11-09T06:36:34.172Z,33.70
2017-11-09T06:39:02.286Z,33.50
2017-11-09T06:41:30.849Z,33.60
2017-11-09T06:44:00.588Z,33.40
2017-11-09T06:46:29.333Z,33.40
2017-11-09T06:48:58.182Z,33.30
2017-11-09T06:51:27.176Z,33.20
2017-11-09T06:53:56.614Z,33.60
2017-11-09T06:56:24.802Z,33.50
2017-11-09T06:58:53.114Z,33.90
2017-11-09T07:01:21.316Z,34.50
2017-11-09T07:03:50.183Z,34.80
2017-11-09T07:06:18.967Z,34.80
2017-11-09T07:08:47.166Z,34.40
2017-11-09T07:11:16.097Z,34.20
2017-11-09T07:13:44.805Z,34.20
2017-11-09T07:16:13.354Z,34.10
2017-11-09T07:18:42.042Z,34.00
2017-11-09T07:21:11.065Z,34.00
2017-11-09T07:23:39.897Z,33.90
2017-11-09T07:26:08.028Z,33.90
2017-11-09T07:28:36.350Z,33.90
2017-11-09T07:31:05.259Z,34.00
2017-11-09T07:33:34.695Z,34.10
2017-11-09T07:36:03.843Z,34.00
2017-11-09T07:38:32.430Z,34.00
2017-11-09T07:41:01.366Z,34.20
2017-11-09T07:43:29.617Z,34.30
2017-11-09T07:45:58.541Z,34.10
2017-11-09T07:48:26.704Z,34.10
2017-11-09T07:50:55.400Z,34.20
2017-11-09T07:53:23.573Z,34.20
2017-11-09T07:55:52.270Z,34.20
2017-11-09T07:58:20.606Z,34.10
2017-11-09T08:00:49.545Z,34.20
2017-11-09T08:03:18.480Z,34.10
2017-11-09T08:05:47.553Z,34.20
2017-11-09T08:08:16.002Z,34.10
2017-11-09T08:10:44.183Z,34.00
2017-11-09T08:13:12.494Z,34.10
2017-11-09T08:15:40.688Z,34.20
2017-11-09T08:18:08.950Z,34.20
2017-11-09T08:20:37.175Z,34.20
2017-11-09T08:23:06.116Z,34.20
2017-11-09T08:25:36.425Z,34.20
2017-11-09T08:28:05.845Z,34.30
2017-11-09T08:30:36.417Z,34.20
2017-11-09T08:33:08.709Z,34.30
2017-11-09T08:35:37.061Z,34.20
2017-11-09T08:38:06.278Z,34.20
2017-11-09T08:40:34.593Z,34.20
2017-11-09T08:43:02.707Z,34.10
2017-11-09T08:45:30.922Z,34.10
2017-11-09T08:47:59.197Z,34.20
2017-11-09T08:50:27.791Z,34.20
2017-11-09T08:52:56.466Z,34.20
2017-11-09T08:55:24.734Z,34.00
2017-11-09T08:57:53.242Z,34.10
2017-11-09T09:00:21.430Z,34.10
2017-11-09T09:02:49.759Z,34.20
2017-11-09T09:05:18.357Z,34.40
2017-11-09T09:07:47.006Z,34.10
2017-11-09T09:10:15.388Z,34.20
2017-11-09T09:12:43.578Z,34.20
2017-11-09T09:15:12.664Z,34.30
2017-11-09T09:17:41.123Z,34.30
2017-11-09T09:20:09.374Z,34.20
2017-11-09T09:22:49.874Z,34.20
2017-11-09T09:25:19.055Z,34.10
2017-11-09T09:27:47.930Z,34.10
2017-11-09T09:30:19.234Z,34.10
2017-11-09T09:32:50.018Z,34.10
2017-11-09T09:35:20.494Z,34.10
2017-11-09T09:37:55.382Z,34.10
2017-11-09T09:40:26.073Z,34.10
2017-11-09T09:42:55.089Z,34.10
2017-11-09T09:45:23.678Z,34.00
2017-11-09T09:47:52.563Z,34.00
2017-11-09T09:50:20.931Z,33.90
2017-11-09T09:52:50.294Z,34.00
2017-11-09T09:55:18.718Z,34.00
2017-11-09T09:57:48.254Z,34.10
2017-11-09T10:00:16.534Z,34.10
2017-11-09T10:02:44.854Z,34.00
2017-11-09T10:05:13.070Z,33.80
2017-11-09T10:07:41.426Z,33.80
2017-11-09T10:10:11.323Z,33.60
2017-11-09T10:12:40.026Z,33.60
2017-11-09T10:15:08.969Z,33.60
2017-11-09T10:17:37.269Z,33.50
2017-11-09T10:20:05.477Z,33.80
2017-11-09T10:22:34.970Z,34.00
2017-11-09T10:25:03.273Z,34.00
2017-11-09T10:27:32.197Z,33.80
2017-11-09T10:30:00.326Z,33.80
2017-11-09T10:32:31.580Z,33.80
2017-11-09T10:34:59.689Z,33.70
2017-11-09T10:37:28.303Z,33.80
2017-11-09T10:39:57.165Z,33.80
2017-11-09T10:42:26.793Z,33.80
2017-11-09T10:44:55.037Z,33.70
2017-11-09T10:47:23.374Z,33.60
2017-11-09T10:49:51.585Z,33.60
2017-11-09T10:52:19.731Z,33.50
2017-11-09T10:54:48.059Z,33.50
2017-11-09T10:57:16.245Z,33.50
2017-11-09T10:59:44.854Z,33.50
2017-11-09T11:02:13.080Z,33.50
2017-11-09T11:04:41.285Z,33.50
2017-11-09T11:07:09.522Z,33.40
2017-11-09T11:09:38.092Z,33.30
2017-11-09T11:12:07.889Z,33.30
2017-11-09T11:14:37.282Z,33.30
2017-11-09T11:17:05.533Z,33.30
2017-11-09T11:19:33.738Z,33.20
2017-11-09T11:22:02.547Z,33.20
2017-11-09T11:24:31.533Z,33.10
2017-11-09T11:26:59.718Z,33.00
2017-11-09T11:29:28.678Z,33.10
2017-11-09T11:31:57.005Z,33.00
2017-11-09T11:34:25.879Z,33.00
2017-11-09T11:36:54.060Z,33.00
2017-11-09T11:39:23.508Z,32.90
2017-11-09T11:41:52.191Z,32.90
2017-11-09T11:44:21.035Z,32.90
2017-11-09T11:46:49.991Z,32.90
2017-11-09T11:49:18.184Z,32.70
2017-11-09T11:51:46.365Z,32.70
2017-11-09T11:54:14.598Z,32.70
2017-11-09T11:56:43.337Z,32.50
2017-11-09T11:59:12.135Z,32.60
2017-11-09T12:01:41.125Z,32.60
2017-11-09T12:04:09.977Z,32.50
2017-11-09T12:06:38.073Z,32.50
2017-11-09T12:09:06.977Z,32.50
2017-11-09T12:11:35.084Z,32.40
2017-11-09T12:14:03.210Z,32.40
2017-11-09T12:16:31.451Z,32.40
2017-11-09T12:18:59.562Z,32.30
2017-11-09T12:21:27.740Z,32.30
2017-11-09T12:23:55.991Z,32.20
2017-11-09T12:26:24.179Z,32.30
2017-11-09T12:28:52.293Z,32.10
2017-11-09T12:31:21.257Z,32.10
2017-11-09T12:33:49.362Z,32.10
2017-11-09T12:36:18.795Z,32.10
2017-11-09T12:38:47.757Z,32.10
2017-11-09T12:41:17.974Z,32.10
2017-11-09T12:43:46.661Z,32.10
2017-11-09T12:46:15.135Z,32.10
2017-11-09T12:48:44.611Z,32.00
2017-11-09T12:51:12.742Z,31.90
2017-11-09T12:53:41.809Z,31.80
2017-11-09T12:56:09.919Z,31.80
2017-11-09T12:58:38.860Z,31.70
2017-11-09T13:01:07.103Z,31.70
2017-11-09T13:03:35.209Z,31.60
2017-11-09T13:06:03.411Z,31.60
2017-11-09T13:08:31.659Z,31.50
2017-11-09T13:10:59.988Z,31.50
2017-11-09T13:13:28.851Z,31.30
2017-11-09T13:15:57.231Z,31.30
2017-11-09T13:18:25.335Z,31.30
2017-11-09T13:20:54.178Z,31.20
2017-11-09T13:23:22.487Z,31.10
2017-11-09T13:25:50.675Z,31.10
2017-11-09T13:28:18.822Z,31.10
2017-11-09T13:30:47.156Z,31.00
2017-11-09T13:33:15.275Z,31.00
2017-11-09T13:35:43.483Z,31.00
2017-11-09T13:38:12.550Z,30.90
2017-11-09T13:40:40.736Z,30.90
2017-11-09T13:43:10.890Z,30.90
2017-11-09T13:45:40.958Z,30.90
2017-11-09T13:48:09.326Z,30.80
2017-11-09T13:50:37.431Z,30.80
2017-11-09T13:53:05.666Z,30.80
2017-11-09T13:55:33.858Z,30.70
2017-11-09T13:58:02.026Z,30.80
2017-11-09T14:00:30.342Z,30.70
2017-11-09T14:02:59.186Z,30.70
2017-11-09T14:05:27.393Z,30.70
2017-11-09T14:07:55.689Z,30.70
2017-11-09T14:10:24.638Z,30.60
2017-11-09T14:12:52.750Z,30.60
2017-11-09T14:15:20.974Z,30.60
2017-11-09T14:17:49.094Z,30.50
2017-11-09T14:20:17.201Z,30.50
2017-11-09T14:22:45.506Z,30.40
2017-11-09T14:25:13.618Z,30.50
2017-11-09T14:27:41.950Z,30.50
2017-11-09T14:30:10.285Z,30.50
2017-11-09T14:32:38.393Z,30.40
2017-11-09T14:35:06.516Z,30.40
2017-11-09T14:37:34.817Z,30.40
2017-11-09T14:40:03.730Z,30.40
2017-11-09T14:42:32.583Z,30.40
2017-11-09T14:45:00.919Z,30.30
2017-11-09T14:47:29.131Z,30.30
2017-11-09T14:49:57.457Z,30.30
2017-11-09T14:52:25.757Z,30.30
2017-11-09T14:54:53.941Z,30.30
2017-11-09T14:57:22.122Z,30.30
2017-11-09T14:59:50.444Z,30.30
2017-11-09T15:02:19.372Z,30.30
2017-11-09T15:04:47.554Z,30.30
2017-11-09T15:07:15.873Z,30.20
2017-11-09T15:09:44.131Z,30.20
2017-11-09T15:12:12.317Z,30.20
2017-11-09T15:14:40.633Z,30.20
2017-11-09T15:17:09.514Z,30.20
2017-11-09T15:19:38.506Z,30.10
2017-11-09T15:22:07.562Z,30.10
2017-11-09T15:24:35.816Z,30.10
2017-11-09T15:27:04.081Z,30.10
2017-11-09T15:29:32.530Z,30.10
2017-11-09T15:32:01.629Z,30.10
2017-11-09T15:34:29.936Z,30.00
2017-11-09T15:36:58.250Z,30.00
2017-11-09T15:39:26.470Z,30.00
2017-11-09T15:41:55.418Z,30.00
2017-11-09T15:44:23.637Z,30.00
2017-11-09T15:46:52.756Z,30.00
2017-11-09T15:49:20.947Z,30.00
2017-11-09T15:51:49.308Z,30.00
2017-11-09T15:54:18.164Z,29.90
2017-11-09T15:56:46.266Z,29.90
2017-11-09T15:59:15.223Z,29.90
2017-11-09T16:01:43.425Z,29.90
2017-11-09T16:04:12.280Z,29.90
2017-11-09T16:06:42.504Z,29.90
2017-11-09T16:09:10.686Z,29.90
2017-11-09T16:11:38.885Z,29.80
2017-11-09T16:14:07.192Z,29.80
2017-11-09T16:16:35.314Z,29.80
2017-11-09T16:19:03.510Z,29.80
2017-11-09T16:21:31.973Z,29.80
2017-11-09T16:24:00.075Z,29.80
2017-11-09T16:26:29.070Z,29.80
2017-11-09T16:28:58.964Z,29.70
2017-11-09T16:31:27.171Z,29.70
2017-11-09T16:33:56.008Z,29.70
2017-11-09T16:36:24.325Z,29.70
2017-11-09T16:38:52.434Z,29.70
2017-11-09T16:41:20.618Z,29.70
2017-11-09T16:43:48.926Z,29.70
2017-11-09T16:46:17.121Z,29.70
2017-11-09T16:48:45.302Z,29.60
2017-11-09T16:51:13.547Z,29.70
2017-11-09T16:53:41.812Z,29.70
2017-11-09T16:56:09.919Z,29.70
2017-11-09T16:58:38.229Z,29.70
2017-11-09T17:01:07.076Z,29.70
2017-11-09T17:03:35.278Z,29.70
2017-11-09T17:06:03.585Z,29.60
2017-11-09T17:08:31.700Z,29.60
2017-11-09T17:10:59.816Z,29.60
2017-11-09T17:13:28.849Z,29.70
2017-11-09T17:15:57.592Z,29.70
2017-11-09T17:18:32.351Z,29.90
2017-11-09T17:21:01.250Z,29.80
2017-11-09T17:23:30.067Z,29.90
2017-11-09T17:25:58.790Z,29.90
2017-11-09T17:28:26.919Z,30.00
2017-11-09T17:30:55.473Z,30.00
2017-11-09T17:33:25.253Z,29.90
2017-11-09T17:35:53.920Z,29.90
2017-11-09T17:38:22.553Z,30.00
2017-11-09T17:40:52.282Z,29.90
2017-11-09T17:43:20.388Z,29.90
2017-11-09T17:45:48.600Z,29.90
2017-11-09T17:48:18.246Z,29.90
2017-11-09T17:50:46.997Z,29.90
2017-11-09T17:53:15.870Z,29.90
2017-11-09T17:55:44.883Z,29.90
2017-11-09T17:58:13.743Z,29.90
2017-11-09T18:00:41.862Z,29.90
2017-11-09T18:03:10.876Z,29.80
2017-11-09T18:05:39.592Z,29.80
2017-11-09T18:08:08.426Z,29.70
2017-11-09T18:10:37.922Z,29.70
2017-11-09T18:13:06.657Z,29.80
2017-11-09T18:15:34.840Z,29.70
2017-11-09T18:18:03.741Z,29.70
2017-11-09T18:20:32.460Z,29.70
2017-11-09T18:23:02.119Z,29.60
2017-11-09T18:25:30.902Z,29.60
2017-11-09T18:27:59.013Z,29.60
2017-11-09T18:30:27.159Z,29.60
2017-11-09T18:32:56.105Z,29.60
2017-11-09T18:35:24.955Z,29.60
2017-11-09T18:37:53.511Z,29.60
2017-11-09T18:40:22.322Z,29.70
2017-11-09T18:42:50.956Z,29.60
2017-11-09T18:45:19.165Z,29.60
2017-11-09T18:47:47.821Z,29.60
2017-11-09T18:50:16.446Z,29.60
2017-11-09T18:52:45.397Z,29.50
2017-11-09T18:55:13.642Z,29.50
2017-11-09T18:57:42.355Z,29.50
2017-11-09T19:00:10.614Z,29.50
2017-11-09T19:02:39.079Z,29.40
2017-11-09T19:05:07.872Z,29.40
2017-11-09T19:07:36.652Z,29.30
2017-11-09T19:10:04.890Z,29.30
2017-11-09T19:12:33.735Z,29.30
2017-11-09T19:15:01.966Z,29.30
2017-11-09T19:17:30.938Z,29.20
2017-11-09T19:19:59.789Z,29.20
2017-11-09T19:22:28.699Z,29.20
2017-11-09T19:24:57.516Z,29.20
2017-11-09T19:27:26.161Z,29.20
2017-11-09T19:29:54.482Z,29.10
2017-11-09T19:32:22.909Z,29.00
2017-11-09T19:34:51.769Z,29.00
2017-11-09T19:37:21.381Z,28.90
2017-11-09T19:39:50.622Z,28.90
2017-11-09T19:42:19.357Z,28.90
2017-11-09T19:44:47.555Z,29.00
2017-11-09T19:47:16.538Z,28.90
2017-11-09T19:49:45.397Z,28.90
2017-11-09T19:52:14.013Z,28.90
2017-11-09T19:54:43.791Z,28.90
2017-11-09T19:57:11.969Z,28.90
2017-11-09T19:59:40.309Z,28.90
2017-11-09T20:02:08.625Z,28.90
2017-11-09T20:04:36.824Z,28.80
2017-11-09T20:07:05.385Z,28.80
2017-11-09T20:09:34.137Z,28.80
2017-11-09T20:12:02.994Z,28.80
2017-11-09T20:14:31.830Z,28.70
2017-11-09T20:17:00.058Z,28.70
2017-11-09T20:19:28.914Z,28.60
2017-11-09T20:21:57.690Z,28.60
2017-11-09T20:24:25.984Z,28.60
2017-11-09T20:26:54.533Z,28.60
2017-11-09T20:29:23.017Z,28.60
2017-11-09T20:31:51.239Z,28.50
2017-11-09T20:34:19.341Z,28.50
2017-11-09T20:36:48.829Z,28.40
2017-11-09T20:39:20.971Z,28.40
2017-11-09T20:41:50.455Z,28.30
2017-11-09T20:44:18.781Z,28.30
2017-11-09T20:46:47.827Z,28.30
2017-11-09T20:49:16.017Z,28.20
2017-11-09T20:51:46.049Z,28.20
2017-11-09T20:54:14.961Z,28.20
2017-11-09T20:56:43.796Z,28.20
2017-11-09T20:59:12.628Z,28.20
2017-11-09T21:01:41.446Z,28.10
2017-11-09T21:04:10.353Z,27.90
2017-11-09T21:06:40.201Z,27.90
2017-11-09T21:09:08.499Z,27.90
2017-11-09T21:11:37.046Z,27.90
2017-11-09T21:14:05.792Z,27.90
2017-11-09T21:16:34.792Z,27.80
2017-11-09T21:19:03.736Z,27.90
2017-11-09T21:21:31.857Z,27.90
2017-11-09T21:24:00.089Z,27.90
2017-11-09T21:26:28.202Z,27.80
2017-11-09T21:28:56.842Z,27.80
2017-11-09T21:31:25.070Z,27.80
2017-11-09T21:33:53.203Z,27.80
2017-11-09T21:36:21.402Z,27.80
2017-11-09T21:38:50.309Z,27.80
2017-11-09T21:41:18.422Z,27.70
2017-11-09T21:43:46.605Z,27.70
2017-11-09T21:46:14.896Z,27.70
2017-11-09T21:48:43.082Z,27.70
2017-11-09T21:51:11.177Z,27.60
2017-11-09T21:53:39.907Z,27.60
2017-11-09T21:56:09.365Z,27.50
2017-11-09T21:58:37.988Z,27.50
2017-11-09T22:01:07.733Z,27.50
2017-11-09T22:03:35.973Z,27.40
2017-11-09T22:06:04.810Z,27.40
2017-11-09T22:08:33.051Z,27.40
2017-11-09T22:11:02.429Z,27.30
2017-11-09T22:13:31.125Z,27.30
2017-11-09T22:16:00.661Z,27.20
2017-11-09T22:18:28.756Z,27.20
2017-11-09T22:20:56.940Z,27.10
2017-11-09T22:23:25.241Z,27.10
2017-11-09T22:25:53.826Z,26.90
2017-11-09T22:28:24.013Z,27.00
2017-11-09T22:30:53.052Z,27.00
2017-11-09T22:33:21.264Z,27.10
2017-11-09T22:35:49.523Z,27.00
2017-11-09T22:38:18.573Z,27.10
2017-11-09T22:40:47.152Z,27.10
2017-11-09T22:43:16.163Z,27.10
2017-11-09T22:45:44.966Z,27.10
2017-11-09T22:48:13.057Z,27.00
2017-11-09T22:50:42.003Z,26.90
2017-11-09T22:53:10.301Z,26.90
2017-11-09T22:55:38.744Z,26.90
2017-11-09T22:58:10.324Z,26.90
2017-11-09T23:00:39.061Z,26.90
2017-11-09T23:03:07.721Z,27.00
2017-11-09T23:05:36.041Z,27.00
2017-11-09T23:08:04.313Z,27.00
2017-11-09T23:10:33.114Z,27.00
2017-11-09T23:13:01.861Z,27.00
2017-11-09T23:15:30.900Z,26.90
2017-11-09T23:17:59.731Z,26.90
2017-11-09T23:20:27.850Z,26.90
2017-11-09T23:22:56.161Z,26.80
2017-11-09T23:25:24.733Z,26.80
2017-11-09T23:27:52.830Z,26.70
2017-11-09T23:30:21.866Z,26.70
2017-11-09T23:32:51.113Z,26.80
2017-11-09T23:35:19.234Z,26.70
2017-11-09T23:37:47.465Z,26.80
2017-11-09T23:40:15.577Z,26.70
2017-11-09T23:42:44.105Z,26.70
2017-11-09T23:45:12.971Z,26.60
2017-11-09T23:47:42.306Z,26.60
2017-11-09T23:50:10.406Z,26.60
2017-11-09T23:52:38.705Z,26.60
2017-11-09T23:55:06.804Z,26.60
2017-11-09T23:57:35.762Z,26.60
